Time;durP1;ratioP1;P1;durP2;ratioP2;P2;SDS_P1;SDS_P2;PMS_P1;PMS_P2;Temp;Humidity;BMP_temperature;BMP_pressure;BME280_temperature;BME280_humidity;BME280_pressure;Samples;Min_cycle;Max_cycle;Signal;HPM_P1;HPM_P2
2022/03/03 00:02:17;;;;;;;30.40;12.38;;;;;;;;;;5096992;28;20975;-82
2022/03/03 00:04:44;;;;;;;33.72;13.43;;;;;;;;;;5097170;28;20087;-82
2022/03/03 00:07:10;;;;;;;24.00;12.10;;;;;;;;;;5096604;28;20537;-82
2022/03/03 00:09:37;;;;;;;25.83;11.80;;;;;;;;;;5091817;28;20490;-82
2022/03/03 00:12:03;;;;;;;27.95;13.32;;;;;;;;;;5095663;28;20056;-82
2022/03/03 00:14:30;;;;;;;24.10;11.93;;;;;;;;;;5095602;28;20142;-81
2022/03/03 00:16:56;;;;;;;24.15;11.93;;;;;;;;;;5095984;28;20090;-82
2022/03/03 00:19:23;;;;;;;28.05;12.25;;;;;;;;;;5095694;28;20060;-81
2022/03/03 00:21:49;;;;;;;24.50;11.43;;;;;;;;;;5095550;28;20053;-81
2022/03/03 00:24:15;;;;;;;33.17;12.60;;;;;;;;;;5095905;28;20045;-82
2022/03/03 00:26:42;;;;;;;24.85;11.77;;;;;;;;;;5098274;28;20041;-82
2022/03/03 00:29:09;;;;;;;25.48;11.63;;;;;;;;;;5094931;28;20079;-82
2022/03/03 00:31:35;;;;;;;21.55;10.80;;;;;;;;;;5095724;28;20114;-82
2022/03/03 00:34:02;;;;;;;25.60;11.90;;;;;;;;;;5095758;28;20105;-81
2022/03/03 00:36:28;;;;;;;22.63;10.93;;;;;;;;;;5096043;28;20114;-81
2022/03/03 00:38:55;;;;;;;29.95;12.27;;;;;;;;;;5094642;28;20553;-81
2022/03/03 00:41:21;;;;;;;27.02;12.10;;;;;;;;;;5096292;28;20589;-82
2022/03/03 00:43:47;;;;;;;25.70;11.63;;;;;;;;;;5096121;28;20067;-81
2022/03/03 00:46:14;;;;;;;26.00;12.13;;;;;;;;;;5097268;28;20106;-81
2022/03/03 00:48:40;;;;;;;25.30;12.10;;;;;;;;;;5095717;28;20056;-82
2022/03/03 00:51:07;;;;;;;24.05;11.45;;;;;;;;;;5094390;28;20056;-81
2022/03/03 00:53:34;;;;;;;23.33;11.98;;;;;;;;;;5095516;28;20033;-81
2022/03/03 00:56:01;;;;;;;25.05;12.60;;;;;;;;;;5098673;28;20049;-81
2022/03/03 00:58:27;;;;;;;30.60;14.02;;;;;;;;;;5094413;28;20060;-82
2022/03/03 01:00:53;;;;;;;29.48;14.30;;;;;;;;;;5093844;28;20060;-81
2022/03/03 01:03:25;;;;;;;27.42;14.90;;;;;;;;;;5095989;28;20045;-81
2022/03/03 01:05:51;;;;;;;29.50;13.77;;;;;;;;;;5094602;28;20053;-82
2022/03/03 01:08:18;;;;;;;24.50;13.60;;;;;;;;;;5094436;28;20057;-82
2022/03/03 01:10:44;;;;;;;27.15;12.50;;;;;;;;;;5097397;28;20044;-82
2022/03/03 01:13:10;;;;;;;26.70;12.07;;;;;;;;;;5095998;28;20072;-82
2022/03/03 01:15:37;;;;;;;24.60;12.75;;;;;;;;;;5091861;28;20036;-82
2022/03/03 01:18:03;;;;;;;26.48;12.88;;;;;;;;;;5080712;28;20053;-81
2022/03/03 01:20:30;;;;;;;24.73;12.25;;;;;;;;;;5095002;28;20056;-82
2022/03/03 01:22:57;;;;;;;24.60;12.90;;;;;;;;;;5094783;28;20063;-82
2022/03/03 01:25:23;;;;;;;29.42;12.63;;;;;;;;;;5091468;28;20091;-82
2022/03/03 01:27:49;;;;;;;26.65;13.30;;;;;;;;;;5094921;28;20307;-82
2022/03/03 01:30:16;;;;;;;25.40;12.27;;;;;;;;;;5094863;28;20037;-82
2022/03/03 01:32:42;;;;;;;24.77;12.35;;;;;;;;;;5094044;28;20102;-82
2022/03/03 01:35:09;;;;;;;26.85;12.27;;;;;;;;;;5095422;28;20061;-82
2022/03/03 01:37:35;;;;;;;24.33;11.95;;;;;;;;;;5096042;28;20053;-82
2022/03/03 01:40:02;;;;;;;25.00;12.02;;;;;;;;;;5094590;28;20206;-81
2022/03/03 01:42:28;;;;;;;28.40;12.95;;;;;;;;;;5096037;28;20113;-81
2022/03/03 01:44:55;;;;;;;23.73;12.55;;;;;;;;;;5095333;28;20105;-81
2022/03/03 01:47:23;;;;;;;27.10;12.50;;;;;;;;;;5094449;28;20098;-82
2022/03/03 01:49:50;;;;;;;31.17;13.05;;;;;;;;;;5095308;28;20048;-82
2022/03/03 01:52:16;;;;;;;27.15;12.63;;;;;;;;;;5096369;28;20049;-82
2022/03/03 01:54:43;;;;;;;24.48;12.73;;;;;;;;;;5093895;28;20044;-81
2022/03/03 01:57:10;;;;;;;26.13;11.85;;;;;;;;;;5095061;28;21097;-82
2022/03/03 01:59:37;;;;;;;27.63;11.82;;;;;;;;;;5094521;28;20036;-81
2022/03/03 02:02:08;;;;;;;27.92;11.90;;;;;;;;;;5094972;28;20079;-81
2022/03/03 02:04:35;;;;;;;24.83;11.52;;;;;;;;;;5095069;28;20534;-81
2022/03/03 02:07:01;;;;;;;25.42;12.00;;;;;;;;;;5093781;28;20142;-82
2022/03/03 02:09:28;;;;;;;23.83;11.30;;;;;;;;;;5095070;28;20056;-82
2022/03/03 02:11:54;;;;;;;28.48;11.75;;;;;;;;;;5095747;28;20083;-81
2022/03/03 02:14:20;;;;;;;27.33;12.02;;;;;;;;;;5094726;28;20029;-81
2022/03/03 02:16:47;;;;;;;28.08;13.07;;;;;;;;;;5096806;28;20126;-81
2022/03/03 02:19:14;;;;;;;29.75;12.85;;;;;;;;;;5094044;28;20033;-81
2022/03/03 02:21:41;;;;;;;25.35;11.30;;;;;;;;;;5081107;28;20045;-82
2022/03/03 02:24:07;;;;;;;27.38;12.27;;;;;;;;;;5091316;28;20056;-81
2022/03/03 02:26:34;;;;;;;25.45;11.70;;;;;;;;;;5094838;28;20967;-81
2022/03/03 02:29:00;;;;;;;28.60;12.15;;;;;;;;;;5094589;28;20037;-82
2022/03/03 02:31:26;;;;;;;29.58;13.43;;;;;;;;;;5094769;28;20045;-82
2022/03/03 02:33:53;;;;;;;26.08;11.75;;;;;;;;;;5090679;28;20053;-82
2022/03/03 02:36:21;;;;;;;27.20;12.73;;;;;;;;;;5073938;28;20080;-82
2022/03/03 02:38:49;;;;;;;30.75;12.98;;;;;;;;;;5085706;28;20041;-82
2022/03/03 02:41:15;;;;;;;29.95;12.25;;;;;;;;;;5094982;28;20056;-82
2022/03/03 02:43:42;;;;;;;28.33;12.50;;;;;;;;;;5095023;28;20053;-82
2022/03/03 02:46:09;;;;;;;27.08;12.35;;;;;;;;;;5093812;28;20060;-82
2022/03/03 02:48:35;;;;;;;28.10;12.10;;;;;;;;;;5092593;28;20048;-82
2022/03/03 02:51:02;;;;;;;25.20;11.32;;;;;;;;;;5090803;28;20078;-82
2022/03/03 02:53:29;;;;;;;29.60;13.10;;;;;;;;;;5094101;28;20032;-81
2022/03/03 02:55:55;;;;;;;27.80;13.27;;;;;;;;;;5095303;28;20040;-82
2022/03/03 02:58:22;;;;;;;27.65;13.70;;;;;;;;;;5093814;28;20064;-81
2022/03/03 03:00:48;;;;;;;24.23;13.85;;;;;;;;;;5094365;28;20510;-82
2022/03/03 03:03:16;;;;;;;29.02;14.00;;;;;;;;;;5094689;28;20070;-82
2022/03/03 03:05:43;;;;;;;28.88;13.55;;;;;;;;;;5093440;28;20036;-81
2022/03/03 03:08:10;;;;;;;26.05;13.25;;;;;;;;;;5094334;28;20063;-81
2022/03/03 03:10:36;;;;;;;26.10;12.93;;;;;;;;;;5093406;28;20071;-81
2022/03/03 03:13:04;;;;;;;29.67;13.82;;;;;;;;;;5080822;28;20745;-81
2022/03/03 03:15:30;;;;;;;31.38;14.52;;;;;;;;;;5083627;28;20070;-82
2022/03/03 03:18:08;;;;;;;27.95;14.95;;;;;;;;;;5093912;28;20052;-82
2022/03/03 03:20:34;;;;;;;28.52;15.27;;;;;;;;;;5087369;28;20049;-81
2022/03/03 03:23:01;;;;;;;31.98;15.63;;;;;;;;;;5095325;28;20075;-81
2022/03/03 03:25:27;;;;;;;29.38;14.93;;;;;;;;;;5093103;28;20048;-82
2022/03/03 03:27:54;;;;;;;29.42;13.90;;;;;;;;;;5084194;28;20122;-82
2022/03/03 03:30:20;;;;;;;30.33;14.38;;;;;;;;;;5075151;28;20065;-82
2022/03/03 03:32:46;;;;;;;29.40;13.90;;;;;;;;;;5091721;28;20103;-82
2022/03/03 03:35:13;;;;;;;26.40;12.60;;;;;;;;;;5093981;28;20052;-81
2022/03/03 03:37:39;;;;;;;27.73;13.32;;;;;;;;;;5095446;28;20111;-81
2022/03/03 03:40:07;;;;;;;31.98;13.02;;;;;;;;;;5095023;28;20523;-81
2022/03/03 03:42:34;;;;;;;26.25;13.35;;;;;;;;;;5096020;28;20059;-81
2022/03/03 03:45:00;;;;;;;25.85;13.02;;;;;;;;;;5095173;28;20066;-82
2022/03/03 03:47:27;;;;;;;28.98;13.65;;;;;;;;;;5094134;28;20485;-81
2022/03/03 03:49:54;;;;;;;33.25;13.77;;;;;;;;;;5095165;28;20048;-81
2022/03/03 03:52:20;;;;;;;27.02;13.10;;;;;;;;;;5094198;28;20056;-81
2022/03/03 03:54:46;;;;;;;27.73;12.48;;;;;;;;;;5094627;28;20572;-82
2022/03/03 03:57:13;;;;;;;27.13;12.80;;;;;;;;;;5091742;28;20048;-82
2022/03/03 03:59:39;;;;;;;31.70;12.90;;;;;;;;;;5091352;28;20052;-82
2022/03/03 04:02:06;;;;;;;30.17;13.73;;;;;;;;;;5094165;28;20048;-81
2022/03/03 04:04:32;;;;;;;30.17;13.52;;;;;;;;;;5095370;28;20043;-81
2022/03/03 04:06:59;;;;;;;27.67;13.73;;;;;;;;;;5093222;28;20046;-81
2022/03/03 04:09:25;;;;;;;30.45;13.50;;;;;;;;;;5094346;28;20574;-81
2022/03/03 04:11:51;;;;;;;27.88;13.38;;;;;;;;;;5102449;28;20126;-82
2022/03/03 04:14:18;;;;;;;27.38;13.25;;;;;;;;;;5104002;28;20056;-82
2022/03/03 04:16:44;;;;;;;29.77;13.77;;;;;;;;;;5103013;28;20075;-82
2022/03/03 04:19:10;;;;;;;27.92;12.73;;;;;;;;;;5115388;28;20051;-81
2022/03/03 04:21:37;;;;;;;26.08;12.52;;;;;;;;;;5115170;28;20831;-81
2022/03/03 04:24:04;;;;;;;28.92;12.65;;;;;;;;;;5113729;28;20041;-81
2022/03/03 04:26:31;;;;;;;27.08;12.63;;;;;;;;;;5112646;28;20071;-81
2022/03/03 04:28:58;;;;;;;26.55;12.25;;;;;;;;;;5115399;28;20036;-82
2022/03/03 04:31:24;;;;;;;28.48;12.15;;;;;;;;;;5115056;28;20037;-82
2022/03/03 04:33:51;;;;;;;27.45;11.65;;;;;;;;;;5114128;28;20162;-82
2022/03/03 04:36:18;;;;;;;27.40;12.70;;;;;;;;;;5109871;28;20083;-81
2022/03/03 04:38:47;;;;;;;26.40;11.82;;;;;;;;;;5100206;28;20053;-81
2022/03/03 04:41:14;;;;;;;25.30;11.50;;;;;;;;;;5101744;28;20165;-81
2022/03/03 04:43:46;;;;;;;28.70;12.38;;;;;;;;;;5101510;28;20052;-81
2022/03/03 04:46:12;;;;;;;24.38;11.20;;;;;;;;;;5100687;28;20033;-81
2022/03/03 04:48:39;;;;;;;27.35;12.05;;;;;;;;;;5101174;28;20052;-81
2022/03/03 04:51:05;;;;;;;25.88;11.60;;;;;;;;;;5100512;28;20057;-81
2022/03/03 04:53:32;;;;;;;29.60;11.93;;;;;;;;;;5100771;28;20499;-81
2022/03/03 04:55:58;;;;;;;25.92;12.05;;;;;;;;;;5100905;28;20774;-81
2022/03/03 04:58:25;;;;;;;27.02;11.50;;;;;;;;;;5099015;28;20053;-82
2022/03/03 05:00:51;;;;;;;32.55;12.70;;;;;;;;;;5099999;28;20052;-81
2022/03/03 05:03:18;;;;;;;24.02;12.00;;;;;;;;;;5099559;28;20880;-81
2022/03/03 05:05:44;;;;;;;25.55;11.57;;;;;;;;;;5100867;28;20037;-81
2022/03/03 05:08:11;;;;;;;24.63;11.63;;;;;;;;;;5098602;28;20114;-81
2022/03/03 05:10:37;;;;;;;24.15;11.20;;;;;;;;;;5098798;28;20063;-81
2022/03/03 05:13:03;;;;;;;26.27;11.93;;;;;;;;;;5100150;28;20947;-81
2022/03/03 05:15:30;;;;;;;25.10;12.02;;;;;;;;;;5100579;28;20107;-81
2022/03/03 05:17:58;;;;;;;26.13;11.98;;;;;;;;;;5098114;28;20037;-81
2022/03/03 05:20:25;;;;;;;27.77;11.73;;;;;;;;;;5098265;28;20057;-81
2022/03/03 05:22:51;;;;;;;28.60;12.90;;;;;;;;;;5099408;28;20053;-81
2022/03/03 05:25:17;;;;;;;27.88;12.00;;;;;;;;;;5099006;28;20036;-81
2022/03/03 05:27:46;;;;;;;28.75;12.05;;;;;;;;;;5097730;28;20044;-81
2022/03/03 05:30:13;;;;;;;29.40;12.05;;;;;;;;;;5097873;28;20049;-81
2022/03/03 05:32:39;;;;;;;26.00;11.23;;;;;;;;;;5099596;28;20044;-81
2022/03/03 05:35:06;;;;;;;28.17;12.32;;;;;;;;;;5100984;28;20044;-81
2022/03/03 05:37:34;;;;;;;28.48;12.15;;;;;;;;;;5098523;28;20063;-81
2022/03/03 05:40:01;;;;;;;28.77;12.77;;;;;;;;;;5087652;28;20534;-81
2022/03/03 05:42:29;;;;;;;29.27;12.38;;;;;;;;;;5099822;28;20052;-81
2022/03/03 05:44:55;;;;;;;26.52;11.80;;;;;;;;;;5098283;28;20118;-80
2022/03/03 05:47:22;;;;;;;28.60;11.82;;;;;;;;;;5098265;28;20044;-81
2022/03/03 05:49:50;;;;;;;25.90;11.25;;;;;;;;;;5098950;28;20569;-81
2022/03/03 05:52:17;;;;;;;29.80;12.05;;;;;;;;;;5097314;28;20061;-82
2022/03/03 05:54:43;;;;;;;26.58;11.98;;;;;;;;;;5096787;28;20048;-81
2022/03/03 05:57:15;;;;;;;29.95;12.43;;;;;;;;;;5097402;28;20130;-81
2022/03/03 05:59:42;;;;;;;31.35;12.20;;;;;;;;;;5095546;28;20519;-82
2022/03/03 06:02:09;;;;;;;28.58;12.85;;;;;;;;;;5095230;28;20053;-81
2022/03/03 06:04:38;;;;;;;31.52;13.15;;;;;;;;;;5095560;28;20095;-82
2022/03/03 06:07:13;;;;;;;43.45;12.45;;;;;;;;;;5095270;28;20057;-82
2022/03/03 06:09:40;;;;;;;31.17;13.25;;;;;;;;;;5092638;28;20052;-81
2022/03/03 06:12:11;;;;;;;29.48;12.25;;;;;;;;;;5090519;28;20127;-79
2022/03/03 06:14:42;;;;;;;28.20;12.38;;;;;;;;;;5097968;28;20110;-79
2022/03/03 06:17:09;;;;;;;26.73;12.50;;;;;;;;;;5094727;28;20147;-79
2022/03/03 06:19:41;;;;;;;29.08;12.88;;;;;;;;;;5097729;28;20056;-79
2022/03/03 06:22:09;;;;;;;29.45;13.52;;;;;;;;;;5098273;28;20416;-79
2022/03/03 06:24:35;;;;;;;30.48;13.40;;;;;;;;;;5098987;28;20542;-81
2022/03/03 06:27:02;;;;;;;28.73;13.10;;;;;;;;;;5092392;28;20037;-82
2022/03/03 06:29:29;;;;;;;26.08;12.73;;;;;;;;;;5094555;28;20435;-82
2022/03/03 06:31:55;;;;;;;28.90;13.18;;;;;;;;;;5095016;28;20130;-80
2022/03/03 06:34:23;;;;;;;29.48;13.07;;;;;;;;;;5092940;28;20563;-80
2022/03/03 06:36:50;;;;;;;28.80;13.10;;;;;;;;;;5094361;28;20123;-79
2022/03/03 06:39:16;;;;;;;32.35;13.75;;;;;;;;;;5095373;28;20501;-79
2022/03/03 06:41:44;;;;;;;28.30;12.65;;;;;;;;;;5097087;28;20419;-82
2022/03/03 06:44:10;;;;;;;26.70;13.27;;;;;;;;;;5098679;28;20044;-82
2022/03/03 06:46:37;;;;;;;34.25;14.07;;;;;;;;;;5094823;28;20041;-81
2022/03/03 06:49:08;;;;;;;30.58;13.82;;;;;;;;;;5095769;28;20083;-80
2022/03/03 06:51:44;;;;;;;29.17;14.15;;;;;;;;;;5094811;28;20036;-79
2022/03/03 06:54:13;;;;;;;29.45;13.82;;;;;;;;;;5097891;28;20044;-80
2022/03/03 06:56:44;;;;;;;32.60;14.07;;;;;;;;;;5096971;28;20079;-79
2022/03/03 06:59:10;;;;;;;;;;;;;;;;;;5098293;28;20056;-80
2022/03/03 07:01:40;;;;;;;30.13;12.73;;;;;;;;;;5097375;28;47899;-79
2022/03/03 07:04:08;;;;;;;33.38;12.98;;;;;;;;;;5097195;28;20056;-79
2022/03/03 07:06:34;;;;;;;29.23;13.35;;;;;;;;;;5097920;28;20040;-79
2022/03/03 07:09:02;;;;;;;32.13;14.40;;;;;;;;;;5098166;28;20052;-79
2022/03/03 07:11:29;;;;;;;29.67;13.13;;;;;;;;;;5097110;28;20032;-79
2022/03/03 07:13:57;;;;;;;31.15;14.20;;;;;;;;;;5096749;28;20063;-80
2022/03/03 07:16:30;;;;;;;34.40;14.20;;;;;;;;;;5079300;28;20058;-81
2022/03/03 07:19:01;;;;;;;34.97;14.90;;;;;;;;;;5095672;28;20040;-79
2022/03/03 07:21:27;;;;;;;31.60;14.40;;;;;;;;;;5094148;28;20059;-80
2022/03/03 07:24:02;;;;;;;30.45;13.55;;;;;;;;;;5097954;28;20033;-80
2022/03/03 07:26:31;;;;;;;30.27;13.07;;;;;;;;;;5098028;28;20064;-79
2022/03/03 07:28:59;;;;;;;29.17;12.63;;;;;;;;;;5097690;28;20242;-80
2022/03/03 07:31:27;;;;;;;28.98;13.32;;;;;;;;;;5097273;28;20054;-80
2022/03/03 07:33:54;;;;;;;33.05;14.45;;;;;;;;;;5096921;28;20147;-80
2022/03/03 07:36:25;;;;;;;28.60;14.95;;;;;;;;;;5094283;28;20558;-80
2022/03/03 07:38:51;;;;;;;;;;;;;;;;;;5095792;28;20056;-80
2022/03/03 07:41:18;;;;;;;32.63;13.75;;;;;;;;;;5092075;28;41026;-79
2022/03/03 07:43:44;;;;;;;32.70;13.90;;;;;;;;;;5094872;28;20056;-80
2022/03/03 07:46:12;;;;;;;35.72;16.17;;;;;;;;;;5091926;28;20052;-80
2022/03/03 07:48:39;;;;;;;39.00;16.58;;;;;;;;;;5091795;28;20049;-80
2022/03/03 07:51:05;;;;;;;34.92;15.18;;;;;;;;;;5096136;28;20052;-80
2022/03/03 07:53:32;;;;;;;36.75;16.75;;;;;;;;;;5099382;28;20048;-80
2022/03/03 07:56:01;;;;;;;33.25;15.32;;;;;;;;;;5094760;28;20053;-81
2022/03/03 07:58:28;;;;;;;40.60;17.13;;;;;;;;;;5097747;28;20915;-80
2022/03/03 08:00:57;;;;;;;35.17;15.80;;;;;;;;;;5099151;28;20094;-80
2022/03/03 08:03:25;;;;;;;37.00;15.98;;;;;;;;;;5099484;28;20056;-80
2022/03/03 08:05:55;;;;;;;34.92;15.70;;;;;;;;;;5098909;28;20140;-80
2022/03/03 08:08:23;;;;;;;30.17;15.27;;;;;;;;;;5095271;28;20983;-80
2022/03/03 08:10:55;;;;;;;34.22;14.60;;;;;;;;;;5097748;28;20048;-81
2022/03/03 08:13:23;;;;;;;33.28;13.65;;;;;;;;;;5098111;28;20045;-80
2022/03/03 08:15:49;;;;;;;33.90;15.57;;;;;;;;;;5095979;28;20591;-80
2022/03/03 08:18:16;;;;;;;34.88;15.43;;;;;;;;;;5095445;28;20038;-80
2022/03/03 08:20:42;;;;;;;29.83;15.15;;;;;;;;;;5096667;28;20048;-80
2022/03/03 08:23:09;;;;;;;33.88;15.00;;;;;;;;;;5095718;28;20044;-80
2022/03/03 08:25:36;;;;;;;30.50;15.30;;;;;;;;;;5099344;28;20052;-80
2022/03/03 08:28:03;;;;;;;31.80;15.18;;;;;;;;;;5098655;28;20071;-80
2022/03/03 08:30:29;;;;;;;34.67;15.38;;;;;;;;;;5096032;28;20108;-81
2022/03/03 08:32:56;;;;;;;28.52;13.43;;;;;;;;;;5100773;28;20060;-80
2022/03/03 08:35:25;;;;;;;26.92;13.57;;;;;;;;;;5085472;28;20538;-80
2022/03/03 08:38:02;;;;;;;30.45;13.13;;;;;;;;;;5090985;28;20514;-80
2022/03/03 08:40:29;;;;;;;26.55;13.27;;;;;;;;;;5088314;28;20048;-81
2022/03/03 08:42:58;;;;;;;28.67;13.43;;;;;;;;;;5099134;28;20955;-80
2022/03/03 08:45:28;;;;;;;24.65;12.15;;;;;;;;;;5098036;28;20032;-80
2022/03/03 08:47:59;;;;;;;29.45;12.32;;;;;;;;;;5098928;28;20711;-81
2022/03/03 08:50:30;;;;;;;24.83;12.52;;;;;;;;;;5099334;28;20096;-80
2022/03/03 08:52:57;;;;;;;26.85;12.52;;;;;;;;;;5098318;28;20096;-80
2022/03/03 08:55:25;;;;;;;27.13;12.70;;;;;;;;;;5099384;28;20052;-80
2022/03/03 08:57:52;;;;;;;25.02;12.50;;;;;;;;;;5087128;28;20053;-80
2022/03/03 09:00:19;;;;;;;25.15;12.40;;;;;;;;;;5095736;28;20179;-80
2022/03/03 09:02:46;;;;;;;22.60;12.07;;;;;;;;;;5097320;28;20290;-80
2022/03/03 09:05:13;;;;;;;23.02;11.38;;;;;;;;;;5096613;28;20113;-80
2022/03/03 09:07:39;;;;;;;25.42;12.68;;;;;;;;;;5097050;28;20554;-80
2022/03/03 09:10:07;;;;;;;25.75;11.77;;;;;;;;;;5097052;28;20075;-81
2022/03/03 09:12:33;;;;;;;23.05;11.98;;;;;;;;;;5096678;28;20048;-80
2022/03/03 09:15:02;;;;;;;23.38;11.45;;;;;;;;;;5097566;28;20052;-80
2022/03/03 09:17:31;;;;;;;22.98;12.00;;;;;;;;;;5092180;28;20103;-80
2022/03/03 09:20:00;;;;;;;24.20;11.70;;;;;;;;;;5077215;28;20562;-80
2022/03/03 09:22:29;;;;;;;20.52;10.82;;;;;;;;;;5087964;28;20076;-80
2022/03/03 09:24:55;;;;;;;23.23;11.60;;;;;;;;;;5097515;28;20112;-80
2022/03/03 09:27:22;;;;;;;25.02;12.45;;;;;;;;;;5095453;28;20567;-80
2022/03/03 09:29:49;;;;;;;26.23;12.07;;;;;;;;;;5095376;28;20048;-80
2022/03/03 09:32:16;;;;;;;20.98;11.65;;;;;;;;;;5090687;28;21001;-80
2022/03/03 09:34:45;;;;;;;23.42;12.10;;;;;;;;;;5094736;28;20056;-80
2022/03/03 09:37:11;;;;;;;23.90;12.02;;;;;;;;;;5094272;28;20052;-80
2022/03/03 09:39:38;;;;;;;22.30;11.63;;;;;;;;;;5094540;28;20044;-80
2022/03/03 09:42:04;;;;;;;19.38;11.60;;;;;;;;;;5095375;28;20102;-80
2022/03/03 09:44:31;;;;;;;21.27;10.45;;;;;;;;;;5095941;28;20079;-80
2022/03/03 09:46:58;;;;;;;20.95;10.82;;;;;;;;;;5094941;28;20084;-80
2022/03/03 09:49:25;;;;;;;20.60;10.88;;;;;;;;;;5094340;28;20685;-80
2022/03/03 09:51:51;;;;;;;20.95;11.85;;;;;;;;;;5094199;28;20063;-80
2022/03/03 09:54:18;;;;;;;30.48;11.18;;;;;;;;;;5093707;28;20106;-80
2022/03/03 09:56:45;;;;;;;25.00;10.85;;;;;;;;;;5093609;28;20522;-80
2022/03/03 09:59:12;;;;;;;19.58;10.07;;;;;;;;;;5094248;28;20066;-80
2022/03/03 10:01:39;;;;;;;19.42;10.48;;;;;;;;;;5094178;28;20057;-80
2022/03/03 10:04:20;;;;;;;18.42;10.23;;;;;;;;;;5077294;28;20874;-80
2022/03/03 10:06:47;;;;;;;22.20;10.57;;;;;;;;;;5093007;28;20044;-80
2022/03/03 10:09:16;;;;;;;19.88;10.38;;;;;;;;;;5092430;28;20110;-80
2022/03/03 10:11:48;;;;;;;20.70;10.10;;;;;;;;;;5092678;28;20051;-80
2022/03/03 10:14:32;;;;;;;18.48;10.98;;;;;;;;;;5091508;28;20061;-80
2022/03/03 10:16:59;;;;;;;17.83;10.20;;;;;;;;;;5091264;28;20040;-80
2022/03/03 10:19:56;;;;;;;18.33;10.63;;;;;;;;;;5093402;28;20725;-80
2022/03/03 10:22:23;;;;;;;17.45;9.75;;;;;;;;;;5090355;28;20053;-80
2022/03/03 10:24:51;;;;;;;18.15;9.93;;;;;;;;;;5090813;28;20768;-81
2022/03/03 10:27:18;;;;;;;19.75;10.07;;;;;;;;;;5091273;28;20056;-81
2022/03/03 10:29:48;;;;;;;18.60;9.40;;;;;;;;;;5091967;28;20048;-81
2022/03/03 10:32:24;;;;;;;18.58;10.27;;;;;;;;;;5092716;28;20056;-81
2022/03/03 10:34:53;;;;;;;17.67;9.73;;;;;;;;;;5090952;28;20577;-80
2022/03/03 10:37:23;;;;;;;16.63;10.13;;;;;;;;;;5091176;28;20507;-81
2022/03/03 10:39:56;;;;;;;15.23;8.77;;;;;;;;;;5091279;28;20495;-80
2022/03/03 10:42:28;;;;;;;19.55;9.43;;;;;;;;;;5087658;28;20057;-81
2022/03/03 10:45:17;;;;;;;18.38;9.35;;;;;;;;;;5090288;28;20049;-81
2022/03/03 10:47:44;;;;;;;16.70;9.50;;;;;;;;;;5090031;28;20079;-81
2022/03/03 10:50:11;;;;;;;15.65;9.05;;;;;;;;;;5091155;28;20053;-80
2022/03/03 10:52:40;;;;;;;16.88;9.88;;;;;;;;;;5091492;28;20032;-81
2022/03/03 10:55:11;;;;;;;16.77;8.95;;;;;;;;;;5089691;28;20056;-81
2022/03/03 10:57:40;;;;;;;;;;;;;;;;;;5091224;28;20052;-81
2022/03/03 11:00:11;;;;;;;14.93;9.20;;;;;;;;;;5088776;28;47199;-80
2022/03/03 11:02:39;;;;;;;17.27;9.00;;;;;;;;;;5087191;28;20119;-80
2022/03/03 11:05:10;;;;;;;15.40;8.32;;;;;;;;;;5079489;28;20071;-81
2022/03/03 11:07:41;;;;;;;14.70;8.30;;;;;;;;;;5091260;28;20060;-81
2022/03/03 11:10:08;;;;;;;14.98;8.85;;;;;;;;;;5074276;28;20056;-80
2022/03/03 11:12:35;;;;;;;15.48;8.20;;;;;;;;;;5088907;28;20051;-80
2022/03/03 11:15:03;;;;;;;14.80;8.30;;;;;;;;;;5087471;28;20103;-81
2022/03/03 11:17:30;;;;;;;15.20;8.10;;;;;;;;;;5090665;28;20056;-80
2022/03/03 11:19:59;;;;;;;12.73;7.50;;;;;;;;;;5089521;28;20044;-80
2022/03/03 11:22:27;;;;;;;12.45;7.80;;;;;;;;;;5087640;28;20052;-80
2022/03/03 11:24:56;;;;;;;13.40;8.30;;;;;;;;;;5102596;28;20033;-81
2022/03/03 11:27:34;;;;;;;15.18;7.60;;;;;;;;;;5087782;28;20531;-81
2022/03/03 11:30:26;;;;;;;12.32;7.60;;;;;;;;;;5091487;28;20957;-80
2022/03/03 11:33:11;;;;;;;11.05;7.25;;;;;;;;;;5075491;28;20049;-79
2022/03/03 11:35:44;;;;;;;16.50;7.68;;;;;;;;;;5090715;28;20052;-81
2022/03/03 11:38:11;;;;;;;17.30;8.50;;;;;;;;;;5092303;28;20106;-79
2022/03/03 11:40:49;;;;;;;13.40;7.93;;;;;;;;;;5088764;28;20539;-79
2022/03/03 11:43:16;;;;;;;13.77;7.88;;;;;;;;;;5080620;28;20053;-80
2022/03/03 11:45:50;;;;;;;12.63;7.55;;;;;;;;;;5087489;28;20067;-79
2022/03/03 11:48:16;;;;;;;12.93;8.13;;;;;;;;;;5094070;28;20052;-81
2022/03/03 11:50:43;;;;;;;12.18;7.85;;;;;;;;;;5093675;28;20063;-80
2022/03/03 11:53:09;;;;;;;16.85;8.40;;;;;;;;;;5095673;28;20063;-81
2022/03/03 11:55:41;;;;;;;15.30;7.78;;;;;;;;;;5090462;28;20052;-80
2022/03/03 11:58:09;;;;;;;14.25;8.02;;;;;;;;;;5090708;28;20515;-81
2022/03/03 12:00:39;;;;;;;13.23;8.40;;;;;;;;;;5083925;28;20107;-80
2022/03/03 12:03:07;;;;;;;13.82;7.85;;;;;;;;;;5090474;28;20080;-79
2022/03/03 12:05:35;;;;;;;14.52;8.25;;;;;;;;;;5092357;28;20135;-80
2022/03/03 12:08:01;;;;;;;15.45;8.50;;;;;;;;;;5091613;28;20037;-80
2022/03/03 12:10:29;;;;;;;14.77;8.20;;;;;;;;;;5091662;28;20503;-81
2022/03/03 12:13:14;;;;;;;13.70;8.43;;;;;;;;;;5094787;28;20578;-80
2022/03/03 12:16:00;;;;;;;14.30;8.68;;;;;;;;;;5084019;28;20064;-80
2022/03/03 12:18:34;;;;;;;12.68;8.15;;;;;;;;;;5091801;28;20084;-80
2022/03/03 12:21:19;;;;;;;15.82;8.77;;;;;;;;;;5090705;28;20106;-80
2022/03/03 12:23:45;;;;;;;15.00;8.90;;;;;;;;;;5099776;28;20067;-80
2022/03/03 12:26:12;;;;;;;13.95;8.90;;;;;;;;;;5086496;28;20516;-80
2022/03/03 12:28:43;;;;;;;14.82;9.32;;;;;;;;;;5090940;28;20044;-81
2022/03/03 12:31:20;;;;;;;14.43;9.18;;;;;;;;;;5090222;28;20561;-79
2022/03/03 12:33:54;;;;;;;16.77;9.65;;;;;;;;;;5077133;28;20084;-80
2022/03/03 12:36:21;;;;;;;18.15;9.65;;;;;;;;;;5085708;28;20053;-79
2022/03/03 12:38:48;;;;;;;18.08;9.05;;;;;;;;;;5089555;28;20060;-79
2022/03/03 12:41:14;;;;;;;15.60;9.38;;;;;;;;;;5090057;28;20044;-79
2022/03/03 12:43:41;;;;;;;15.13;8.73;;;;;;;;;;5077709;28;20048;-80
2022/03/03 12:46:07;;;;;;;16.30;9.48;;;;;;;;;;5091219;28;20624;-80
2022/03/03 12:48:34;;;;;;;14.45;9.60;;;;;;;;;;5083967;28;20049;-80
2022/03/03 12:51:01;;;;;;;14.63;9.73;;;;;;;;;;5086558;28;20056;-80
2022/03/03 12:53:33;;;;;;;15.88;9.70;;;;;;;;;;5090087;28;20040;-81
2022/03/03 12:55:59;;;;;;;14.48;9.50;;;;;;;;;;5089896;28;20229;-80
2022/03/03 12:58:31;;;;;;;15.00;9.35;;;;;;;;;;5090393;28;20132;-80
2022/03/03 13:00:59;;;;;;;16.92;10.00;;;;;;;;;;5082800;28;20053;-79
2022/03/03 13:03:32;;;;;;;15.95;9.82;;;;;;;;;;5090303;28;20060;-80
2022/03/03 13:06:03;;;;;;;17.52;10.23;;;;;;;;;;5087668;28;20048;-80
2022/03/03 13:08:30;;;;;;;;;;;;;;;;;;5089100;28;20028;-80
2022/03/03 13:11:01;;;;;;;15.77;9.95;;;;;;;;;;5090951;28;46160;-80
2022/03/03 13:13:28;;;;;;;15.50;9.88;;;;;;;;;;5092166;28;20576;-81
2022/03/03 13:15:54;;;;;;;16.58;9.95;;;;;;;;;;5087901;28;20135;-81
2022/03/03 13:18:23;;;;;;;16.98;10.00;;;;;;;;;;5088662;28;20142;-80
2022/03/03 13:21:05;;;;;;;14.77;9.13;;;;;;;;;;5088135;28;20106;-80
2022/03/03 13:23:32;;;;;;;17.13;10.07;;;;;;;;;;5089646;28;20057;-79
2022/03/03 13:26:18;;;;;;;16.33;9.50;;;;;;;;;;5085103;28;20142;-80
2022/03/03 13:28:53;;;;;;;15.13;9.35;;;;;;;;;;5089585;28;20045;-79
2022/03/03 13:31:21;;;;;;;15.95;9.88;;;;;;;;;;5087951;28;20600;-80
2022/03/03 13:33:55;;;;;;;14.70;9.40;;;;;;;;;;5089369;28;20079;-80
2022/03/03 13:36:23;;;;;;;15.35;8.77;;;;;;;;;;5089941;28;20098;-80
2022/03/03 13:38:51;;;;;;;12.70;8.77;;;;;;;;;;5089525;28;20123;-81
2022/03/03 13:41:21;;;;;;;13.63;9.57;;;;;;;;;;5090513;28;20048;-81
2022/03/03 13:43:47;;;;;;;16.38;9.80;;;;;;;;;;5073405;28;20103;-81
2022/03/03 13:46:29;;;;;;;15.52;9.02;;;;;;;;;;5090765;28;20074;-80
2022/03/03 13:48:56;;;;;;;14.45;9.40;;;;;;;;;;5087081;28;20052;-80
2022/03/03 13:51:22;;;;;;;15.88;9.60;;;;;;;;;;5091276;28;20060;-80
2022/03/03 13:53:59;;;;;;;16.00;8.98;;;;;;;;;;5086055;28;20060;-80
2022/03/03 13:56:26;;;;;;;16.92;9.77;;;;;;;;;;5090012;28;20602;-80
2022/03/03 13:59:04;;;;;;;16.83;8.95;;;;;;;;;;5089271;28;20048;-81
2022/03/03 14:01:33;;;;;;;13.95;8.70;;;;;;;;;;5087888;28;20593;-78
2022/03/03 14:04:13;;;;;;;13.25;8.75;;;;;;;;;;5090318;28;20549;-81
2022/03/03 14:06:40;;;;;;;14.32;9.32;;;;;;;;;;5091015;28;20110;-79
2022/03/03 14:09:07;;;;;;;16.77;9.50;;;;;;;;;;5083321;28;20139;-81
2022/03/03 14:11:34;;;;;;;15.85;9.25;;;;;;;;;;5089735;28;20044;-81
2022/03/03 14:14:01;;;;;;;15.88;9.48;;;;;;;;;;5092064;28;20083;-81
2022/03/03 14:16:31;;;;;;;15.60;9.20;;;;;;;;;;5089184;28;20595;-80
2022/03/03 14:18:59;;;;;;;15.93;9.13;;;;;;;;;;5085392;28;21158;-80
2022/03/03 14:21:26;;;;;;;18.30;9.88;;;;;;;;;;5079045;28;20052;-79
2022/03/03 14:23:52;;;;;;;15.60;8.55;;;;;;;;;;5088658;28;20056;-80
2022/03/03 14:26:39;;;;;;;17.20;9.48;;;;;;;;;;5084508;28;20191;-80
2022/03/03 14:29:05;;;;;;;17.48;10.18;;;;;;;;;;5081780;28;20036;-79